Time,TemperatureF,DewpointF,PressureIn,WindDirection,WindDirectionDegrees,WindSpeedMPH,WindSpeedGustMPH,Humidity,HourlyPrecipIn,Conditions,Clouds,dailyrainin,SoftwareType,DateUTC
2013-02-07 06:15:00,39.5,-1.8,30.00,ESE,121,12.0,12.0,17,0.00,,,0.00,Wunderground v.1.15,2013-02-07 14:15:00,
2013-02-07 06:20:00,39.5,-1.8,30.00,ESE,106,12.0,14.0,17,0.00,,,0.00,Wunderground v.1.15,2013-02-07 14:20:00,
2013-02-07 06:23:00,39.5,-1.8,30.00,East,96,12.0,15.0,17,0.00,,,0.00,Wunderground v.1.15,2013-02-07 14:23:00,
2013-02-07 06:29:00,39.5,-1.8,30.00,East,100,12.0,13.0,17,0.00,,,0.00,Wunderground v.1.15,2013-02-07 14:29:00,
2013-02-07 06:32:00,39.5,-1.8,30.00,ESE,103,12.0,13.0,17,0.00,,,0.00,Wunderground v.1.15,2013-02-07 14:32:00,
2013-02-07 06:38:00,39.5,-3.1,30.00,ESE,113,13.0,13.0,16,0.00,,,0.00,Wunderground v.1.15,2013-02-07 14:38:00,
2013-02-07 06:43:00,39.5,-3.1,30.00,ESE,114,12.0,13.0,16,0.00,,,0.00,Wunderground v.1.15,2013-02-07 14:43:00,
2013-02-07 06:50:00,39.5,-3.1,29.99,East,100,12.0,13.0,16,0.00,,,0.00,Wunderground v.1.15,2013-02-07 14:50:00,
2013-02-07 06:56:00,39.2,-2.1,29.99,ESE,113,12.0,12.0,17,0.00,,,0.00,Wunderground v.1.15,2013-02-07 14:56:00,
2013-02-07 07:02:00,39.2,-3.3,29.99,ESE,103,12.0,18.0,16,0.00,,,0.00,Wunderground v.1.15,2013-02-07 15:02:00,
2013-02-07 07:08:00,39.3,-2.0,29.99,ESE,107,12.0,18.0,17,0.00,,,0.00,Wunderground v.1.15,2013-02-07 15:08:00,
2013-02-07 07:14:00,39.5,-1.8,29.99,East,90,12.0,15.0,17,0.00,,,0.00,Wunderground v.1.15,2013-02-07 15:14:00,
2013-02-07 07:20:00,39.3,-2.0,30.00,ESE,113,11.0,11.0,17,0.00,,,0.00,Wunderground v.1.15,2013-02-07 15:20:00,
2013-02-07 07:26:00,39.2,-0.8,30.00,East,95,10.0,14.0,18,0.00,,,0.00,Wunderground v.1.15,2013-02-07 15:26:00,
2013-02-07 07:32:00,39.5,-0.6,30.01,ESE,110,11.0,18.0,18,0.00,,,0.00,Wunderground v.1.15,2013-02-07 15:32:00,
2013-02-07 07:38:00,40.2,-2.5,30.01,East,95,12.0,18.0,16,0.00,,,0.00,Wunderground v.1.15,2013-02-07 15:38:00,
2013-02-07 07:44:00,40.6,-2.2,30.01,East,92,12.0,13.0,16,0.00,,,0.00,Wunderground v.1.15,2013-02-07 15:44:00,
2013-02-07 07:50:00,41.2,-1.7,30.00,East,90,12.0,18.0,16,0.00,,,0.00,Wunderground v.1.15,2013-02-07 15:50:00,
2013-02-07 07:56:00,42.1,-2.3,30.00,ESE,106,14.0,25.0,15,0.00,,,0.00,Wunderground v.1.15,2013-02-07 15:56:00,
2013-02-07 08:02:00,42.8,-3.2,29.99,ESE,119,14.0,14.0,14,0.00,,,0.00,Wunderground v.1.15,2013-02-07 16:02:00,
2013-02-07 08:08:00,43.5,-2.6,29.99,East,99,13.0,18.0,14,0.00,,,0.00,Wunderground v.1.15,2013-02-07 16:08:00,
2013-02-07 08:14:00,44.1,-5.4,29.99,ESE,112,13.0,15.0,12,0.00,,,0.00,Wunderground v.1.15,2013-02-07 16:14:00,
2013-02-07 08:20:00,44.6,-6.8,29.99,ESE,112,13.0,13.0,11,0.00,,,0.00,Wunderground v.1.15,2013-02-07 16:20:00,
2013-02-07 08:26:00,45.2,-2.8,29.99,ESE,106,13.0,14.0,13,0.00,,,0.00,Wunderground v.1.15,2013-02-07 16:26:00,
2013-02-07 08:32:00,45.5,-2.6,29.99,SE,136,12.0,13.0,13,0.00,,,0.00,Wunderground v.1.15,2013-02-07 16:32:00,
2013-02-07 08:38:00,46.0,-5.7,29.99,ESE,106,10.0,13.0,11,0.00,,,0.00,Wunderground v.1.15,2013-02-07 16:38:00,
2013-02-07 08:44:00,46.4,-9.5,29.99,SSE,152,9.0,9.0,9,0.00,,,0.00,Wunderground v.1.15,2013-02-07 16:44:00,
2013-02-07 08:50:00,47.0,-6.9,29.98,ESE,113,12.0,13.0,10,0.00,,,0.00,Wunderground v.1.15,2013-02-07 16:50:00,
2013-02-07 08:56:00,47.1,-6.8,29.98,SSE,155,12.0,13.0,10,0.00,,,0.00,Wunderground v.1.15,2013-02-07 16:56:00,
2013-02-07 09:01:00,47.4,-6.6,29.98,SSE,150,11.0,15.0,10,0.00,,,0.00,Wunderground v.1.15,2013-02-07 17:01:00,
2013-02-07 09:08:00,47.6,-6.4,29.98,SE,144,10.0,15.0,10,0.00,,,0.00,Wunderground v.1.15,2013-02-07 17:08:00,
2013-02-07 16:34:00,40.8,23.6,29.88,South,184,11.0,11.0,50,0.00,,,0.00,Wunderground v.1.15,2013-02-08 00:34:00,
2013-02-07 16:40:00,40.1,24.3,29.88,South,178,8.0,14.0,53,0.00,,,0.00,Wunderground v.1.15,2013-02-08 00:40:00,
2013-02-07 16:46:00,39.3,24.5,29.91,WSW,250,5.0,7.0,55,0.00,,,0.00,Wunderground v.1.15,2013-02-08 00:46:00,
2013-02-07 16:52:00,38.8,26.1,29.91,SW,227,4.0,7.0,60,0.00,,,0.00,Wunderground v.1.15,2013-02-08 00:52:00,
2013-02-07 16:58:00,37.6,26.1,29.91,WNW,299,5.0,9.0,63,0.00,,,0.00,Wunderground v.1.15,2013-02-08 00:58:00,
2013-02-07 17:04:00,36.9,26.2,29.91,West,277,3.0,5.0,65,0.00,,,0.00,Wunderground v.1.15,2013-02-08 01:04:00,
2013-02-07 17:10:00,36.8,26.1,29.91,SSW,196,1.0,1.0,65,0.00,,,0.00,Wunderground v.1.15,2013-02-08 01:10:00,
2013-02-07 17:15:00,36.8,26.1,29.93,ESE,119,4.0,9.0,65,0.00,,,0.00,Wunderground v.1.15,2013-02-08 01:15:00,
2013-02-07 17:22:00,36.6,26.3,29.93,SSE,152,7.0,7.0,66,0.00,,,0.00,Wunderground v.1.15,2013-02-08 01:22:00,
2013-02-07 17:28:00,36.5,26.6,29.93,SSE,147,4.0,7.0,67,0.00,,,0.00,Wunderground v.1.15,2013-02-08 01:28:00,
2013-02-07 17:34:00,36.2,26.6,29.92,West,271,3.0,4.0,68,0.00,,,0.00,Wunderground v.1.15,2013-02-08 01:34:00,
2013-02-07 17:40:00,35.9,26.7,29.92,West,271,1.0,1.0,69,0.00,,,0.00,Wunderground v.1.15,2013-02-08 01:40:00,
2013-02-07 17:46:00,35.6,27.1,29.93,South,174,1.0,4.0,71,0.00,,,0.00,Wunderground v.1.15,2013-02-08 01:46:00,
2013-02-07 17:52:00,35.2,26.7,29.93,SSW,209,1.0,1.0,71,0.00,,,0.00,Wunderground v.1.15,2013-02-08 01:52:00,
2013-02-07 17:58:00,34.9,26.8,29.93,ESE,104,1.0,4.0,72,0.00,,,0.00,Wunderground v.1.15,2013-02-08 01:58:00,
2013-02-07 18:04:00,34.3,26.5,29.94,ESE,102,2.0,4.0,73,0.00,,,0.00,Wunderground v.1.15,2013-02-08 02:04:00,
2013-02-07 18:10:00,34.0,26.3,29.94,ESE,102,3.0,6.0,73,0.00,,,0.00,Wunderground v.1.15,2013-02-08 02:10:00,
2013-02-07 18:16:00,33.5,26.1,29.94,ENE,75,2.0,6.0,74,0.00,,,0.00,Wunderground v.1.15,2013-02-08 02:16:00,
2013-02-07 18:21:00,33.1,25.4,29.94,East,88,1.0,2.0,73,0.00,,,0.00,Wunderground v.1.15,2013-02-08 02:21:00,
2013-02-07 18:28:00,32.7,24.7,29.94,East,88,1.0,4.0,72,0.00,,,0.00,Wunderground v.1.15,2013-02-08 02:28:00,
2013-02-07 18:34:00,32.4,23.7,29.95,East,88,0.0,1.0,70,0.00,,,0.00,Wunderground v.1.15,2013-02-08 02:34:00,
2013-02-07 18:40:00,32.4,21.6,29.95,East,93,0.0,4.0,64,0.00,,,0.00,Wunderground v.1.15,2013-02-08 02:40:00,
2013-02-07 18:46:00,32.1,21.7,29.95,ENE,58,1.0,4.0,65,0.00,,,0.00,Wunderground v.1.15,2013-02-08 02:46:00,
2013-02-07 18:52:00,31.5,21.4,29.95,ENE,58,1.0,1.0,66,0.00,,,0.00,Wunderground v.1.15,2013-02-08 02:52:00,
2013-02-07 18:58:00,31.2,20.1,29.95,ENE,58,1.0,4.0,63,0.00,,,0.00,Wunderground v.1.15,2013-02-08 02:58:00,
2013-02-07 19:04:00,31.6,19.3,29.94,East,99,3.0,6.0,60,0.00,,,0.00,Wunderground v.1.15,2013-02-08 03:04:00,
2013-02-07 19:10:00,31.6,19.3,29.94,ENE,78,2.0,2.0,60,0.00,,,0.00,Wunderground v.1.15,2013-02-08 03:10:00,
2013-02-07 19:16:00,31.5,20.0,29.92,ESE,104,1.0,8.0,62,0.00,,,0.00,Wunderground v.1.15,2013-02-08 03:16:00,
2013-02-07 19:32:00,31.2,19.3,29.92,ENE,64,3.0,3.0,61,0.00,,,0.00,Wunderground v.1.15,2013-02-08 03:32:00,
2013-02-07 19:38:00,31.2,18.5,29.92,ENE,59,2.0,3.0,59,0.00,,,0.00,Wunderground v.1.15,2013-02-08 03:38:00,
2013-02-07 19:44:00,31.0,18.3,29.92,ENE,59,0.0,0.0,59,0.00,,,0.00,Wunderground v.1.15,2013-02-08 03:44:00,
2013-02-07 19:50:00,30.9,17.4,29.92,ENE,59,0.0,0.0,57,0.00,,,0.00,Wunderground v.1.15,2013-02-08 03:50:00,
2013-02-07 19:56:00,30.7,16.8,29.92,ESE,114,1.0,4.0,56,0.00,,,0.00,Wunderground v.1.15,2013-02-08 03:56:00,
2013-02-07 20:01:00,30.6,16.7,29.91,ESE,110,2.0,4.0,56,0.00,,,0.00,Wunderground v.1.15,2013-02-08 04:01:00,
2013-02-07 20:08:00,30.3,16.5,29.91,WNW,287,3.0,4.0,56,0.00,,,0.00,Wunderground v.1.15,2013-02-08 04:08:00,
2013-02-07 20:13:00,30.1,16.3,29.91,NNW,337,1.0,2.0,56,0.00,,,0.00,Wunderground v.1.15,2013-02-08 04:13:00,
2013-02-07 20:19:00,30.0,16.2,29.91,NNE,13,0.0,1.0,56,0.00,,,0.00,Wunderground v.1.15,2013-02-08 04:19:00,
2013-02-07 20:26:00,30.3,15.6,29.91,NNE,17,1.0,4.0,54,0.00,,,0.00,Wunderground v.1.15,2013-02-08 04:26:00,
2013-02-07 20:32:00,30.6,15.9,29.90,NNE,16,1.0,1.0,54,0.00,,,0.00,Wunderground v.1.15,2013-02-08 04:32:00,
2013-02-07 20:38:00,30.0,17.0,29.90,ENE,59,3.0,4.0,58,0.00,,,0.00,Wunderground v.1.15,2013-02-08 04:38:00,
2013-02-07 20:43:00,29.3,17.1,29.90,ESE,107,2.0,3.0,60,0.00,,,0.00,Wunderground v.1.15,2013-02-08 04:43:00,
2013-02-07 20:50:00,28.7,16.9,29.92,NE,44,1.0,6.0,61,0.00,,,0.00,Wunderground v.1.15,2013-02-08 04:50:00,
2013-02-07 20:56:00,28.5,16.4,29.92,NE,38,2.0,6.0,60,0.00,,,0.00,Wunderground v.1.15,2013-02-08 04:56:00,
2013-02-07 21:02:00,28.4,15.9,29.92,NNE,25,1.0,2.0,59,0.00,,,0.00,Wunderground v.1.15,2013-02-08 05:02:00,
2013-02-07 21:03:00,28.4,15.9,29.92,NNE,25,0.0,2.0,59,0.00,,,0.00,Wunderground v.1.15,2013-02-08 05:03:00,
2013-02-07 21:08:00,28.4,15.9,29.92,East,97,1.0,2.0,59,0.00,,,0.00,Wunderground v.1.15,2013-02-08 05:08:00,
2013-02-07 21:10:00,28.4,15.9,29.92,East,97,1.0,1.0,59,0.00,,,0.00,Wunderground v.1.15,2013-02-08 05:10:00,
2013-02-07 21:16:00,28.1,15.2,29.91,East,97,0.0,1.0,58,0.00,,,0.00,Wunderground v.1.15,2013-02-08 05:16:00,
2013-02-07 21:22:00,27.9,14.6,29.91,East,97,0.0,1.0,57,0.00,,,0.00,Wunderground v.1.15,2013-02-08 05:22:00,
2013-02-07 21:28:00,27.8,14.1,29.91,ENE,75,1.0,1.0,56,0.00,,,0.00,Wunderground v.1.15,2013-02-08 05:28:00,
2013-02-07 21:34:00,27.8,14.1,29.91,ENE,65,1.0,2.0,56,0.00,,,0.00,Wunderground v.1.15,2013-02-08 05:34:00,
2013-02-07 21:40:00,27.8,13.3,29.91,ENE,69,2.0,2.0,54,0.00,,,0.00,Wunderground v.1.15,2013-02-08 05:40:00,
2013-02-07 21:46:00,27.6,13.5,29.91,ENE,73,1.0,2.0,55,0.00,,,0.00,Wunderground v.1.15,2013-02-08 05:46:00,
2013-02-07 21:52:00,27.2,13.1,29.91,East,80,1.0,1.0,55,0.00,,,0.00,Wunderground v.1.15,2013-02-08 05:52:00,